createdAt,value
2023-02-28T09:10:36.961Z,-0.90
2023-02-28T09:13:04.314Z,-0.80
2023-02-28T09:15:31.624Z,-0.70
2023-02-28T09:17:58.978Z,-0.60
2023-02-28T09:20:26.563Z,-0.50
2023-02-28T09:22:53.915Z,-0.40
2023-02-28T09:25:21.282Z,-0.30
2023-02-28T09:27:48.637Z,-0.20
2023-02-28T09:30:17.213Z,-0.40
2023-02-28T09:32:54.708Z,-0.20
2023-02-28T09:35:27.731Z,-0.50
2023-02-28T09:37:55.172Z,-0.30
2023-02-28T09:40:26.583Z,0.00
2023-02-28T09:42:58.276Z,0.00
2023-02-28T09:45:43.668Z,0.10
2023-02-28T09:48:27.838Z,0.20
2023-02-28T09:51:13.654Z,0.30
2023-02-28T09:53:41.093Z,0.40
2023-02-28T09:56:42.866Z,0.30
2023-02-28T09:59:45.656Z,0.40
2023-02-28T10:03:05.056Z,0.40
2023-02-28T10:06:18.143Z,0.60
2023-02-28T10:09:14.464Z,0.50
2023-02-28T10:11:43.855Z,0.50
2023-02-28T10:14:28.594Z,0.70
2023-02-28T10:17:26.460Z,0.50
2023-02-28T10:20:30.744Z,0.70
2023-02-28T10:23:32.840Z,0.60
2023-02-28T10:26:17.076Z,0.90
2023-02-28T10:28:45.497Z,0.80
2023-02-28T10:31:22.679Z,1.00
2023-02-28T10:33:51.396Z,0.80
2023-02-28T10:36:22.814Z,0.80
2023-02-28T10:38:51.461Z,0.90
2023-02-28T10:41:37.262Z,0.90
2023-02-28T10:44:34.154Z,1.00
2023-02-28T10:47:01.502Z,0.90
2023-02-28T10:49:30.236Z,1.00
2023-02-28T10:52:01.964Z,0.80
2023-02-28T10:54:38.847Z,1.10
2023-02-28T10:57:29.596Z,1.40
2023-02-28T11:00:22.587Z,1.30
2023-02-28T11:02:50.415Z,1.10
2023-02-28T11:05:32.627Z,1.30
2023-02-28T11:08:16.940Z,1.30
2023-02-28T11:11:00.138Z,1.40
2023-02-28T11:13:37.240Z,1.50
2023-02-28T11:16:13.724Z,1.80
2023-02-28T11:18:56.401Z,1.60
2023-02-28T11:21:37.666Z,1.70
2023-02-28T11:24:30.073Z,1.70
2023-02-28T11:26:58.272Z,1.90
2023-02-28T11:29:35.657Z,1.80
2023-02-28T11:32:29.726Z,1.80
2023-02-28T11:35:23.457Z,2.00
2023-02-28T11:37:51.008Z,2.20
2023-02-28T11:40:39.799Z,2.20
2023-02-28T11:43:57.457Z,2.30
2023-02-28T11:46:55.363Z,2.30
2023-02-28T11:50:18.673Z,2.30
2023-02-28T11:53:32.088Z,2.20
2023-02-28T11:56:43.545Z,2.40
2023-02-28T11:59:50.300Z,2.50
2023-02-28T12:03:42.538Z,2.60
2023-02-28T12:06:36.663Z,2.40
2023-02-28T12:10:06.182Z,2.50
2023-02-28T12:13:28.110Z,2.80
2023-02-28T12:16:39.830Z,2.50
2023-02-28T12:19:59.314Z,2.50
2023-02-28T12:22:43.536Z,2.70
2023-02-28T12:26:11.306Z,2.70
2023-02-28T12:28:54.525Z,2.70
2023-02-28T12:31:32.102Z,2.70
2023-02-28T12:34:11.146Z,2.40
2023-02-28T12:36:41.132Z,2.60
2023-02-28T12:39:39.085Z,2.40
2023-02-28T12:42:33.490Z,2.50
2023-02-28T12:45:24.892Z,2.50
2023-02-28T12:48:23.101Z,2.60
2023-02-28T12:50:51.399Z,2.70
2023-02-28T12:54:11.584Z,2.60
2023-02-28T12:57:35.951Z,2.70
2023-02-28T13:00:23.295Z,2.70
2023-02-28T13:03:26.060Z,2.90
2023-02-28T13:06:36.615Z,3.00
2023-02-28T13:09:14.789Z,3.00
2023-02-28T13:11:48.699Z,3.10
2023-02-28T13:14:34.292Z,3.00
2023-02-28T13:17:14.131Z,3.00
2023-02-28T13:20:38.069Z,3.00
2023-02-28T13:23:25.405Z,3.10
2023-02-28T13:25:54.622Z,3.20
2023-02-28T13:28:56.593Z,2.90
2023-02-28T13:31:23.988Z,3.10
2023-02-28T13:34:00.553Z,3.10
2023-02-28T13:36:33.859Z,3.10
2023-02-28T13:39:37.794Z,2.90
2023-02-28T13:42:36.998Z,2.90
2023-02-28T13:45:06.926Z,2.90
2023-02-28T13:48:15.856Z,3.10
2023-02-28T13:50:44.847Z,3.10
2023-02-28T13:53:14.964Z,3.30
2023-02-28T13:56:11.241Z,3.30
2023-02-28T13:59:21.905Z,3.10
2023-02-28T14:02:50.178Z,3.20
2023-02-28T14:05:26.704Z,3.40
2023-02-28T14:08:07.398Z,3.20
2023-02-28T14:10:49.903Z,3.30
2023-02-28T14:13:48.342Z,3.40
2023-02-28T14:16:40.311Z,3.20
2023-02-28T14:19:28.532Z,3.00
2023-02-28T14:23:01.545Z,3.00
2023-02-28T14:25:54.702Z,3.10
2023-02-28T14:29:25.624Z,2.90
2023-02-28T14:32:23.373Z,3.10
2023-02-28T14:35:59.040Z,3.10
2023-02-28T14:39:17.156Z,3.10
2023-02-28T14:41:46.956Z,3.00
2023-02-28T14:44:28.950Z,3.00
2023-02-28T14:47:09.934Z,3.30
2023-02-28T14:49:46.781Z,3.10
2023-02-28T14:52:25.288Z,3.00
2023-02-28T14:55:15.527Z,3.10
2023-02-28T14:58:05.182Z,3.10
2023-02-28T15:00:51.811Z,3.10
2023-02-28T15:03:38.001Z,3.20
2023-02-28T15:06:17.665Z,2.90
2023-02-28T15:08:46.621Z,2.90
2023-02-28T15:11:23.185Z,3.20
2023-02-28T15:13:56.529Z,3.20
2023-02-28T15:16:38.460Z,3.00
2023-02-28T15:19:27.267Z,3.10
2023-02-28T15:22:17.845Z,3.10
2023-02-28T15:24:52.207Z,3.10
2023-02-28T15:27:34.679Z,3.20
2023-02-28T15:30:33.663Z,3.00
2023-02-28T15:33:25.979Z,3.10
2023-02-28T15:36:16.915Z,3.20
2023-02-28T15:38:45.021Z,3.00
2023-02-28T15:41:39.085Z,3.10
2023-02-28T15:44:39.132Z,3.10
2023-02-28T15:47:26.122Z,2.90
2023-02-28T15:50:13.486Z,3.00
2023-02-28T15:52:45.991Z,2.90
2023-02-28T15:55:30.773Z,3.00
2023-02-28T15:58:02.921Z,3.20
2023-02-28T16:00:33.957Z,3.10
2023-02-28T16:03:01.410Z,3.00
2023-02-28T16:05:32.886Z,2.80
2023-02-28T16:08:16.573Z,2.90
2023-02-28T16:10:43.899Z,2.90
2023-02-28T16:13:16.142Z,3.00
2023-02-28T16:15:44.887Z,3.00
2023-02-28T16:18:14.179Z,2.90
2023-02-28T16:20:42.383Z,2.70
2023-02-28T16:23:09.690Z,2.60
2023-02-28T16:25:44.621Z,2.60
2023-02-28T16:28:39.848Z,2.50
2023-02-28T16:31:08.603Z,2.50
2023-02-28T16:33:35.994Z,2.70
2023-02-28T16:36:03.701Z,2.80
2023-02-28T16:38:31.052Z,2.70
2023-02-28T16:41:01.077Z,2.90
2023-02-28T16:43:29.067Z,2.60
2023-02-28T16:46:02.372Z,2.60
2023-02-28T16:48:30.566Z,2.80
2023-02-28T16:50:58.093Z,2.80
2023-02-28T16:53:25.361Z,3.00
2023-02-28T16:55:52.736Z,2.90
2023-02-28T16:58:22.673Z,2.80
2023-02-28T17:00:50.212Z,3.00
2023-02-28T17:03:33.489Z,2.90
2023-02-28T17:06:02.237Z,2.70
2023-02-28T17:08:30.802Z,2.70
2023-02-28T17:10:58.140Z,2.90
2023-02-28T17:13:25.878Z,2.70
2023-02-28T17:15:53.346Z,2.70
2023-02-28T17:18:22.071Z,2.90
2023-02-28T17:20:49.984Z,2.80
2023-02-28T17:23:17.406Z,2.70
2023-02-28T17:25:56.390Z,2.70
2023-02-28T17:28:25.849Z,2.70
2023-02-28T17:30:53.245Z,2.50
2023-02-28T17:33:20.573Z,2.60
2023-02-28T17:35:48.255Z,2.60
2023-02-28T17:38:20.621Z,2.60
2023-02-28T17:40:48.000Z,2.30
2023-02-28T17:43:15.888Z,2.30
2023-02-28T17:45:43.386Z,2.20
2023-02-28T17:48:13.994Z,2.20
2023-02-28T17:50:41.408Z,2.40
2023-02-28T17:53:08.715Z,2.40
2023-02-28T17:55:36.911Z,2.40
2023-02-28T17:58:04.859Z,2.40
2023-02-28T18:00:35.553Z,2.40
2023-02-28T18:03:02.942Z,2.20
2023-02-28T18:05:31.068Z,2.10
2023-02-28T18:07:58.579Z,2.10
2023-02-28T18:10:28.281Z,2.20
2023-02-28T18:12:55.858Z,2.30
2023-02-28T18:15:23.622Z,2.30
2023-02-28T18:17:51.168Z,2.50
2023-02-28T18:20:19.633Z,2.40
2023-02-28T18:22:47.619Z,2.30
2023-02-28T18:25:17.054Z,2.40
2023-02-28T18:27:58.596Z,2.40
2023-02-28T18:30:37.342Z,2.40
2023-02-28T18:33:05.272Z,2.60
2023-02-28T18:35:36.153Z,2.70
2023-02-28T18:38:30.095Z,2.60
2023-02-28T18:41:05.458Z,2.20
2023-02-28T18:43:36.572Z,2.50
2023-02-28T18:46:15.689Z,2.30
2023-02-28T18:48:44.047Z,2.20
2023-02-28T18:51:23.599Z,2.50
2023-02-28T18:53:51.066Z,2.30
2023-02-28T18:56:23.885Z,2.10
2023-02-28T18:58:52.925Z,2.30
2023-02-28T19:01:31.050Z,2.30
2023-02-28T19:04:01.808Z,2.30
2023-02-28T19:06:31.261Z,2.10
2023-02-28T19:09:03.819Z,2.10
2023-02-28T19:11:32.101Z,2.10
2023-02-28T19:13:59.676Z,2.30
2023-02-28T19:16:28.308Z,2.20
2023-02-28T19:18:56.064Z,2.40
2023-02-28T19:21:25.057Z,2.30
2023-02-28T19:23:53.291Z,2.30
2023-02-28T19:26:25.564Z,2.00
2023-02-28T19:28:53.617Z,2.10
2023-02-28T19:31:26.671Z,2.20
2023-02-28T19:33:54.957Z,2.00
2023-02-28T19:36:23.468Z,2.10
2023-02-28T19:38:51.181Z,2.10
2023-02-28T19:41:19.543Z,2.20
2023-02-28T19:43:47.915Z,2.40
2023-02-28T19:46:15.531Z,2.40
2023-02-28T19:48:44.761Z,2.40
2023-02-28T19:51:14.984Z,2.20
2023-02-28T19:53:43.555Z,2.20
2023-02-28T19:56:12.055Z,2.20
2023-02-28T19:58:40.063Z,2.20
2023-02-28T20:01:18.862Z,2.40
2023-02-28T20:03:51.756Z,2.40
2023-02-28T20:06:19.292Z,2.10
2023-02-28T20:08:46.602Z,2.30
2023-02-28T20:11:17.535Z,2.40
2023-02-28T20:13:45.866Z,2.10
2023-02-28T20:16:15.969Z,2.20
2023-02-28T20:18:46.662Z,2.20
2023-02-28T20:21:14.318Z,2.40
2023-02-28T20:23:43.380Z,2.50
2023-02-28T20:26:12.463Z,2.40
2023-02-28T20:28:40.487Z,2.50
